Time;durP1;ratioP1;P1;durP2;ratioP2;P2;SDS_P1;SDS_P2;PMS_P1;PMS_P2;Temp;Humidity;BMP_temperature;BMP_pressure;BME280_temperature;BME280_humidity;BME280_pressure;Samples;Min_cycle;Max_cycle;Signal;HPM_P1;HPM_P2
2021/01/15 00:00:46;;;;;;;14.70;7.10;;;2.20;91.30;;;;;;5051147;28;20043;-66
2021/01/15 00:03:11;;;;;;;13.03;6.97;;;2.20;91.30;;;;;;5033538;28;20121;-66
2021/01/15 00:05:40;;;;;;;12.97;6.87;;;2.20;91.30;;;;;;5052109;28;20037;-66
2021/01/15 00:08:06;;;;;;;12.27;6.70;;;2.20;91.30;;;;;;5050861;28;20040;-66
2021/01/15 00:10:32;;;;;;;14.37;7.40;;;2.20;91.30;;;;;;5051913;28;20044;-66
2021/01/15 00:12:57;;;;;;;13.57;6.30;;;2.20;91.50;;;;;;5050434;28;20075;-66
2021/01/15 00:15:23;;;;;;;13.93;7.00;;;2.20;91.30;;;;;;5051318;28;20040;-67
2021/01/15 00:17:49;;;;;;;13.03;6.53;;;2.20;91.20;;;;;;5050330;28;20110;-66
2021/01/15 00:20:15;;;;;;;12.93;6.87;;;2.20;90.90;;;;;;5050853;28;20080;-64
2021/01/15 00:22:44;;;;;;;13.40;6.73;;;2.10;90.50;;;;;;5051559;28;20497;-66
2021/01/15 00:25:11;;;;;;;12.77;6.67;;;2.00;90.20;;;;;;5051565;28;20067;-66
2021/01/15 00:27:38;;;;;;;12.27;6.07;;;1.80;89.90;;;;;;5051411;28;20485;-65
2021/01/15 00:30:08;;;;;;;15.00;7.13;;;1.60;89.80;;;;;;5050675;28;20029;-65
2021/01/15 00:32:38;;;;;;;11.32;6.13;;;1.50;90.00;;;;;;5049701;28;20040;-65
2021/01/15 00:35:06;;;;;;;15.83;7.40;;;1.30;90.40;;;;;;5051272;28;20036;-65
2021/01/15 00:37:32;;;;;;;13.60;7.33;;;1.20;90.30;;;;;;5049853;28;20128;-65
2021/01/15 00:39:58;;;;;;;13.20;6.67;;;1.10;90.50;;;;;;5049227;28;20037;-65
2021/01/15 00:42:23;;;;;;;14.13;7.13;;;1.10;90.80;;;;;;5050180;28;20040;-66
2021/01/15 00:44:49;;;;;;;14.50;6.50;;;1.20;91.00;;;;;;5050962;28;20040;-65
2021/01/15 00:47:15;;;;;;;15.20;6.63;;;1.20;91.00;;;;;;5051283;28;20040;-65
2021/01/15 00:49:41;;;;;;;14.03;7.23;;;1.30;91.00;;;;;;5050556;28;20025;-68
2021/01/15 00:52:07;;;;;;;16.07;6.60;;;1.30;91.00;;;;;;5049908;28;20029;-66
2021/01/15 00:54:33;;;;;;;14.00;7.00;;;1.30;91.00;;;;;;5051013;28;20032;-66
2021/01/15 00:57:00;;;;;;;14.10;6.90;;;1.40;90.90;;;;;;5050444;28;20089;-66
2021/01/15 00:59:28;;;;;;;13.73;6.87;;;1.40;90.80;;;;;;5032593;28;20033;-66
2021/01/15 01:02:00;;;;;;;13.63;6.67;;;1.40;90.90;;;;;;5049109;28;20043;-66
2021/01/15 01:04:27;;;;;;;16.33;6.63;;;1.40;91.10;;;;;;5049790;28;20039;-66
2021/01/15 01:06:52;;;;;;;13.73;7.10;;;1.40;91.00;;;;;;5051084;28;20040;-67
2021/01/15 01:09:18;;;;;;;12.97;6.67;;;1.40;91.00;;;;;;5051443;28;20033;-65
2021/01/15 01:11:44;;;;;;;12.37;6.50;;;1.40;91.00;;;;;;5049363;28;20497;-65
2021/01/15 01:14:10;;;;;;;14.17;6.90;;;1.40;91.00;;;;;;5050817;28;20497;-65
2021/01/15 01:16:36;;;;;;;14.17;7.57;;;1.40;91.10;;;;;;5049924;28;20049;-66
2021/01/15 01:19:02;;;;;;;13.77;6.83;;;1.50;91.20;;;;;;5051192;28;20572;-66
2021/01/15 01:21:28;;;;;;;14.23;7.03;;;1.50;91.10;;;;;;5049041;28;20039;-64
2021/01/15 01:23:54;;;;;;;14.30;6.60;;;1.50;91.10;;;;;;5051256;28;20036;-66
2021/01/15 01:26:20;;;;;;;14.50;7.03;;;1.50;91.10;;;;;;5050750;28;20045;-66
2021/01/15 01:28:46;;;;;;;14.40;7.27;;;1.50;91.10;;;;;;5051155;28;20041;-66
2021/01/15 01:31:13;;;;;;;15.03;7.70;;;1.50;91.00;;;;;;5048869;28;20045;-66
2021/01/15 01:33:39;;;;;;;14.47;7.33;;;1.50;91.20;;;;;;5050563;28;20041;-66
2021/01/15 01:36:06;;;;;;;15.80;7.83;;;1.60;91.20;;;;;;5048985;28;20425;-66
2021/01/15 01:38:32;;;;;;;16.10;8.27;;;1.60;91.30;;;;;;5050015;28;20509;-66
2021/01/15 01:40:58;;;;;;;14.73;7.87;;;1.60;91.50;;;;;;5049436;28;20052;-67
2021/01/15 01:43:25;;;;;;;18.83;8.80;;;1.60;91.30;;;;;;5050143;28;20379;-66
2021/01/15 01:45:50;;;;;;;14.60;8.27;;;1.70;91.30;;;;;;5049802;28;20056;-66
2021/01/15 01:48:18;;;;;;;19.17;9.60;;;1.70;91.30;;;;;;5049979;28;20060;-66
2021/01/15 01:50:46;;;;;;;20.37;10.53;;;1.70;91.40;;;;;;5048910;28;20033;-64
2021/01/15 01:53:16;;;;;;;16.93;9.10;;;1.80;91.30;;;;;;5048842;28;20554;-66
2021/01/15 01:55:42;;;;;;;17.77;8.53;;;1.70;91.30;;;;;;5049882;28;20064;-66
2021/01/15 01:58:10;;;;;;;17.97;9.70;;;1.80;91.30;;;;;;5049788;28;20033;-66
2021/01/15 02:00:39;;;;;;;18.00;9.57;;;1.80;91.50;;;;;;5049437;28;20051;-66
2021/01/15 02:03:05;;;;;;;19.30;9.67;;;1.80;91.30;;;;;;5049665;28;20036;-66
2021/01/15 02:05:30;;;;;;;18.27;9.90;;;1.80;91.30;;;;;;5050020;28;20032;-66
2021/01/15 02:07:56;;;;;;;16.77;9.87;;;1.80;91.30;;;;;;5049735;28;20033;-65
2021/01/15 02:10:31;;;;;;;21.20;10.87;;;1.90;91.40;;;;;;5048991;28;20041;-66
2021/01/15 02:12:56;;;;;;;17.27;10.17;;;1.90;91.40;;;;;;5049844;28;20049;-65
2021/01/15 02:15:29;;;;;;;17.97;9.97;;;1.90;91.40;;;;;;5048276;28;21551;-64
2021/01/15 02:18:24;;;;;;;19.37;10.17;;;1.90;91.40;;;;;;5050135;28;20124;-64
2021/01/15 02:21:28;;;;;;;19.93;10.03;;;1.90;91.30;;;;;;5048660;28;20040;-65
2021/01/15 02:24:09;;;;;;;18.47;9.93;;;1.90;91.30;;;;;;5041070;28;20456;-66
2021/01/15 02:27:07;;;;;;;17.40;9.52;;;1.90;91.40;;;;;;5050022;28;20056;-65
2021/01/15 02:29:33;;;;;;;18.67;10.07;;;1.90;91.40;;;;;;5048793;28;20059;-66
2021/01/15 02:32:20;;;;;;;22.40;10.53;;;1.90;91.50;;;;;;5049772;28;20445;-66
2021/01/15 02:35:14;;;;;;;18.33;10.27;;;1.90;91.40;;;;;;5049430;28;20061;-66
2021/01/15 02:38:07;;;;;;;18.57;10.23;;;2.00;91.50;;;;;;5049423;28;20036;-66
2021/01/15 02:40:44;;;;;;;18.83;10.00;;;2.00;91.50;;;;;;5047700;28;20033;-66
2021/01/15 02:43:12;;;;;;;18.87;10.10;;;2.00;91.40;;;;;;5049727;28;20033;-66
2021/01/15 02:45:38;;;;;;;20.67;10.47;;;2.00;91.50;;;;;;5049470;28;20057;-65
2021/01/15 02:48:05;;;;;;;20.53;10.47;;;2.00;91.50;;;;;;5049782;28;20472;-66
2021/01/15 02:50:31;;;;;;;19.87;10.50;;;2.00;91.50;;;;;;5048874;28;20075;-65
2021/01/15 02:52:59;;;;;;;18.80;10.33;;;2.00;91.50;;;;;;5049285;28;20037;-66
2021/01/15 02:55:25;;;;;;;21.77;10.73;;;2.00;91.50;;;;;;5049570;28;20171;-66
2021/01/15 02:57:51;;;;;;;19.27;10.00;;;2.00;91.50;;;;;;5047928;28;20044;-66
2021/01/15 03:00:20;;;;;;;17.53;9.60;;;2.00;91.50;;;;;;5047399;28;20036;-66
2021/01/15 03:03:09;;;;;;;18.80;9.90;;;2.00;91.50;;;;;;5053562;28;20033;-65
2021/01/15 03:05:42;;;;;;;18.37;8.90;;;2.00;91.40;;;;;;5053564;28;20041;-66
2021/01/15 03:08:09;;;;;;;15.27;8.30;;;2.00;91.40;;;;;;5053784;28;20056;-66
2021/01/15 03:10:36;;;;;;;17.33;9.40;;;2.00;91.40;;;;;;5052484;28;20037;-65
2021/01/15 03:13:06;;;;;;;18.47;9.90;;;2.00;91.40;;;;;;5052227;28;20511;-66
2021/01/15 03:15:36;;;;;;;19.50;10.02;;;2.00;91.50;;;;;;5053116;28;20049;-65
2021/01/15 03:18:04;;;;;;;18.20;9.30;;;2.00;91.40;;;;;;5052334;28;20406;-66
2021/01/15 03:20:29;;;;;;;18.00;9.63;;;2.00;91.70;;;;;;5052729;28;20044;-66
2021/01/15 03:22:55;;;;;;;17.17;9.00;;;1.90;91.40;;;;;;5053446;28;20033;-66
2021/01/15 03:25:21;;;;;;;20.13;9.73;;;2.00;91.40;;;;;;5053387;28;20544;-65
2021/01/15 03:27:49;;;;;;;21.53;9.57;;;2.00;91.40;;;;;;5051638;28;20078;-66
2021/01/15 03:30:18;;;;;;;17.33;8.33;;;2.00;91.50;;;;;;5051159;28;20040;-65
2021/01/15 03:32:46;;;;;;;17.40;8.67;;;1.90;91.40;;;;;;5052511;28;20044;-65
2021/01/15 03:35:24;;;;;;;17.37;8.20;;;2.00;91.40;;;;;;5052516;28;20045;-66
2021/01/15 03:38:10;;;;;;;17.00;8.40;;;2.00;91.30;;;;;;5051947;28;20493;-65
2021/01/15 03:40:44;;;;;;;14.20;7.30;;;1.90;91.30;;;;;;5051731;28;20029;-66
2021/01/15 03:43:21;;;;;;;17.30;8.13;;;1.90;91.50;;;;;;5052111;28;20032;-66
2021/01/15 03:45:48;;;;;;;14.83;7.27;;;1.90;91.30;;;;;;5051086;28;20040;-65
2021/01/15 03:48:15;;;;;;;14.97;6.90;;;1.90;91.30;;;;;;5051817;28;20040;-65
2021/01/15 03:50:41;;;;;;;14.17;7.77;;;1.90;91.30;;;;;;5051504;28;20036;-65
2021/01/15 03:53:07;;;;;;;13.60;7.27;;;1.90;91.30;;;;;;5051880;28;20041;-65
2021/01/15 03:55:34;;;;;;;14.73;7.67;;;1.90;91.30;;;;;;5052104;28;20098;-66
2021/01/15 03:58:01;;;;;;;15.03;7.03;;;1.90;91.30;;;;;;5052140;28;20061;-66
2021/01/15 04:00:27;;;;;;;15.80;7.10;;;1.90;91.40;;;;;;5049526;28;20072;-66
2021/01/15 04:02:52;;;;;;;13.40;6.77;;;1.90;91.30;;;;;;5050878;28;20047;-66
2021/01/15 04:05:18;;;;;;;15.07;7.17;;;1.90;91.30;;;;;;5050432;28;20412;-66
2021/01/15 04:07:45;;;;;;;15.03;7.30;;;1.90;91.30;;;;;;5051971;28;20183;-65
2021/01/15 04:10:13;;;;;;;14.13;7.57;;;1.90;91.50;;;;;;5051120;28;20174;-65
2021/01/15 04:12:40;;;;;;;14.03;6.67;;;1.90;91.30;;;;;;5049889;28;20052;-66
2021/01/15 04:15:10;;;;;;;17.20;7.40;;;1.90;91.20;;;;;;5050542;28;20052;-66
2021/01/15 04:17:37;;;;;;;17.48;7.53;;;2.00;91.20;;;;;;5051220;28;20048;-65
2021/01/15 04:20:06;;;;;;;15.07;7.87;;;1.90;91.20;;;;;;5051039;28;20086;-66
2021/01/15 04:22:35;;;;;;;14.13;7.03;;;1.90;91.20;;;;;;5051043;28;20114;-65
2021/01/15 04:25:02;;;;;;;15.50;7.57;;;1.90;91.20;;;;;;5051527;28;20052;-65
2021/01/15 04:27:29;;;;;;;15.13;7.10;;;1.90;91.10;;;;;;5051535;28;20111;-65
2021/01/15 04:29:55;;;;;;;14.63;6.80;;;1.90;91.00;;;;;;5050135;28;20047;-66
2021/01/15 04:32:22;;;;;;;13.07;6.33;;;1.90;91.10;;;;;;5051507;28;20033;-65
2021/01/15 04:34:47;;;;;;;13.77;6.50;;;1.90;91.10;;;;;;5051030;28;20033;-64
2021/01/15 04:37:13;;;;;;;14.57;6.97;;;1.80;91.10;;;;;;5050188;28;20025;-66
2021/01/15 04:39:39;;;;;;;15.13;7.30;;;1.80;91.10;;;;;;5050617;28;20043;-65
2021/01/15 04:42:05;;;;;;;19.53;7.63;;;1.80;91.20;;;;;;5050937;28;20037;-66
2021/01/15 04:44:31;;;;;;;15.70;7.57;;;1.80;91.20;;;;;;5051269;28;20095;-66
2021/01/15 04:47:00;;;;;;;14.33;6.63;;;1.80;91.10;;;;;;5050980;28;20416;-66
2021/01/15 04:49:28;;;;;;;13.27;6.53;;;1.80;91.00;;;;;;5050809;28;20402;-66
2021/01/15 04:52:01;;;;;;;15.60;7.10;;;1.80;91.30;;;;;;5050944;28;20037;-66
2021/01/15 04:54:39;;;;;;;14.97;7.40;;;1.80;91.00;;;;;;5050801;28;20090;-66
2021/01/15 04:57:10;;;;;;;17.67;7.37;;;1.80;91.30;;;;;;5051005;28;20045;-65
2021/01/15 04:59:43;;;;;;;14.60;7.10;;;1.80;91.00;;;;;;5050198;28;20370;-65
2021/01/15 05:02:10;;;;;;;14.50;7.10;;;1.70;91.00;;;;;;5050382;28;20091;-65
2021/01/15 05:04:36;;;;;;;15.10;7.17;;;1.70;90.90;;;;;;5051141;28;20037;-66
2021/01/15 05:07:07;;;;;;;13.93;6.80;;;1.80;91.00;;;;;;5051401;28;20044;-65
2021/01/15 05:09:56;;;;;;;14.98;7.43;;;1.70;90.90;;;;;;5050373;28;20036;-65
2021/01/15 05:12:29;;;;;;;15.17;6.50;;;1.70;90.90;;;;;;5050992;28;20442;-66
2021/01/15 05:14:56;;;;;;;15.87;6.47;;;1.70;90.90;;;;;;5051471;28;20036;-65
2021/01/15 05:17:25;;;;;;;12.23;6.40;;;1.60;91.10;;;;;;5051442;28;20029;-66
2021/01/15 05:19:55;;;;;;;13.20;6.63;;;1.60;90.90;;;;;;5048811;28;20040;-65
2021/01/15 05:22:21;;;;;;;13.57;6.47;;;1.70;90.90;;;;;;5051041;28;20064;-66
2021/01/15 05:24:47;;;;;;;15.40;6.93;;;1.60;90.80;;;;;;5050227;28;20068;-67
2021/01/15 05:30:21;;;;;;;14.90;6.57;;;1.60;90.80;;;;;;5050262;28;20037;-65
2021/01/15 05:32:48;;;;;;;14.60;7.40;;;1.60;90.80;;;;;;5050234;28;20040;-66
2021/01/15 05:35:15;;;;;;;15.30;7.30;;;1.60;90.80;;;;;;5050605;28;20037;-65
2021/01/15 05:37:42;;;;;;;15.87;7.87;;;1.60;90.80;;;;;;5050545;28;20033;-65
2021/01/15 05:40:08;;;;;;;14.50;7.27;;;1.60;90.80;;;;;;5048384;28;20512;-64
2021/01/15 05:42:50;;;;;;;15.13;7.90;;;1.60;90.70;;;;;;5050421;28;20037;-65
2021/01/15 05:45:16;;;;;;;15.30;7.07;;;1.50;90.80;;;;;;5049995;28;20452;-66
2021/01/15 05:47:44;;;;;;;16.43;7.40;;;1.50;90.70;;;;;;5050356;28;20170;-64
2021/01/15 05:50:13;;;;;;;14.37;7.57;;;1.60;90.70;;;;;;5047739;28;20444;-64
2021/01/15 05:52:56;;;;;;;14.57;7.83;;;1.60;90.70;;;;;;5050210;28;20025;-64
2021/01/15 05:55:23;;;;;;;16.40;7.90;;;1.50;90.60;;;;;;5049775;28;20045;-66
2021/01/15 05:57:50;;;;;;;12.97;7.07;;;1.50;90.60;;;;;;5050206;28;20090;-65
2021/01/15 06:00:24;;;;;;;14.97;7.83;;;1.50;90.60;;;;;;5049503;28;20033;-66
2021/01/15 06:02:52;;;;;;;15.93;7.60;;;1.50;90.50;;;;;;5050294;28;20045;-66
2021/01/15 06:05:22;;;;;;;16.30;8.00;;;1.50;90.50;;;;;;5032295;28;20045;-65
2021/01/15 06:07:57;;;;;;;17.50;8.40;;;1.50;90.50;;;;;;5048532;28;20044;-65
2021/01/15 06:10:24;;;;;;;14.73;7.60;;;1.50;90.50;;;;;;5049278;28;20048;-65
2021/01/15 06:12:53;;;;;;;16.60;8.20;;;1.50;90.40;;;;;;5049782;28;20033;-66
2021/01/15 06:15:20;;;;;;;14.97;7.90;;;1.50;90.40;;;;;;5050073;28;20056;-65
2021/01/15 06:17:50;;;;;;;15.80;7.97;;;1.50;90.40;;;;;;5050091;28;20068;-64
2021/01/15 06:20:20;;;;;;;16.70;8.85;;;1.50;90.40;;;;;;5049872;28;20029;-65
2021/01/15 06:22:54;;;;;;;15.43;8.43;;;1.50;90.40;;;;;;5049754;28;20045;-65
2021/01/15 06:25:23;;;;;;;17.37;8.87;;;1.50;90.40;;;;;;5050643;28;20581;-65
2021/01/15 06:27:55;;;;;;;18.97;9.40;;;1.50;90.40;;;;;;5050320;28;20045;-66
2021/01/15 06:30:23;;;;;;;20.87;10.30;;;1.50;90.40;;;;;;5049915;28;20124;-64
2021/01/15 06:32:51;;;;;;;18.13;9.17;;;1.50;90.30;;;;;;5049433;28;20052;-66
2021/01/15 06:35:38;;;;;;;18.57;9.97;;;1.50;90.30;;;;;;5051366;28;20102;-66
2021/01/15 06:38:08;;;;;;;19.37;10.17;;;1.50;90.30;;;;;;5053194;28;20178;-64
2021/01/15 06:40:48;;;;;;;17.30;8.98;;;1.50;90.30;;;;;;5053438;28;20498;-65
2021/01/15 06:43:34;;;;;;;21.27;11.25;;;1.50;90.30;;;;;;5053170;28;20040;-66
2021/01/15 06:46:01;;;;;;;20.03;9.77;;;1.50;90.30;;;;;;5053448;28;20040;-66
2021/01/15 06:48:31;;;;;;;21.37;10.17;;;1.50;90.20;;;;;;5051590;28;20497;-66
2021/01/15 06:50:58;;;;;;;20.33;10.40;;;1.40;90.20;;;;;;5052734;28;20045;-66
2021/01/15 06:53:27;;;;;;;22.90;10.97;;;1.40;90.30;;;;;;5051575;28;20112;-65
2021/01/15 06:56:17;;;;;;;25.17;13.30;;;1.40;90.30;;;;;;5053184;28;20041;-65
2021/01/15 06:58:44;;;;;;;23.43;12.67;;;1.40;90.30;;;;;;5052891;28;20128;-64
2021/01/15 07:01:16;;;;;;;19.90;9.70;;;1.50;90.20;;;;;;5052852;28;20493;-64
2021/01/15 07:03:47;;;;;;;15.90;8.57;;;1.50;90.20;;;;;;5051383;28;20070;-64
2021/01/15 07:06:26;;;;;;;18.00;9.27;;;1.50;90.20;;;;;;5052910;28;20056;-64
2021/01/15 07:08:53;;;;;;;16.87;9.47;;;1.40;90.20;;;;;;5052484;28;20033;-65
2021/01/15 07:11:22;;;;;;;18.13;9.70;;;1.50;90.10;;;;;;5052209;28;20033;-65
2021/01/15 07:13:57;;;;;;;17.50;9.47;;;1.50;90.10;;;;;;5051077;28;20063;-64
2021/01/15 07:16:39;;;;;;;19.43;10.67;;;1.40;90.00;;;;;;5053179;28;20041;-64
2021/01/15 07:19:05;;;;;;;17.37;8.90;;;1.40;90.00;;;;;;5051988;28;20076;-65
2021/01/15 07:21:38;;;;;;;17.60;8.83;;;1.40;90.10;;;;;;5051829;28;20080;-66
2021/01/15 07:24:08;;;;;;;16.30;8.60;;;1.40;90.10;;;;;;5052363;28;20045;-66
2021/01/15 07:26:41;;;;;;;14.70;8.23;;;1.40;90.00;;;;;;5052839;28;20091;-65
2021/01/15 07:29:13;;;;;;;19.97;9.23;;;1.40;90.00;;;;;;5051066;28;20501;-65
2021/01/15 07:31:41;;;;;;;19.57;9.47;;;1.40;90.00;;;;;;5052264;28;20390;-65
2021/01/15 07:34:14;;;;;;;16.63;8.90;;;1.40;90.00;;;;;;5052775;28;20501;-65
2021/01/15 07:36:40;;;;;;;18.20;9.67;;;1.40;90.00;;;;;;5052902;28;20094;-65
2021/01/15 07:39:14;;;;;;;17.63;9.80;;;1.40;89.90;;;;;;5052596;28;20040;-66
2021/01/15 07:42:01;;;;;;;17.97;9.77;;;1.40;89.80;;;;;;5050407;28;20047;-65
2021/01/15 07:44:27;;;;;;;16.33;9.20;;;1.40;89.80;;;;;;5049264;28;20374;-66
2021/01/15 07:46:58;;;;;;;16.17;8.70;;;1.40;89.60;;;;;;5050671;28;20069;-66
2021/01/15 07:49:25;;;;;;;19.73;8.87;;;1.30;89.60;;;;;;5049390;28;20098;-65
2021/01/15 07:52:07;;;;;;;16.27;8.57;;;1.30;89.50;;;;;;5033001;28;20033;-64
2021/01/15 07:54:51;;;;;;;16.37;8.23;;;1.30;89.50;;;;;;5049682;28;20118;-65
2021/01/15 07:57:20;;;;;;;17.00;9.23;;;1.30;89.60;;;;;;5052010;28;20045;-66
2021/01/15 07:59:46;;;;;;;18.97;9.40;;;1.30;89.60;;;;;;5050244;28;20036;-66
2021/01/15 08:02:21;;;;;;;18.30;9.17;;;1.30;89.60;;;;;;5052635;28;20033;-66
2021/01/15 08:04:48;;;;;;;16.73;9.33;;;1.30;89.50;;;;;;5052364;28;20044;-65
2021/01/15 08:07:22;;;;;;;18.23;9.30;;;1.30;89.40;;;;;;5051058;28;20397;-66
2021/01/15 08:09:48;;;;;;;17.30;9.10;;;1.30;89.30;;;;;;5033446;28;20071;-66
2021/01/15 08:12:14;;;;;;;18.83;9.67;;;1.30;89.20;;;;;;5052705;28;20094;-66
2021/01/15 08:14:41;;;;;;;17.30;9.50;;;1.30;89.10;;;;;;5069425;28;20036;-66
2021/01/15 08:17:11;;;;;;;18.83;9.23;;;1.30;89.00;;;;;;5071569;28;20036;-64
2021/01/15 08:19:38;;;;;;;18.85;10.10;;;1.30;89.10;;;;;;5049721;28;20045;-65
2021/01/15 08:22:13;;;;;;;17.50;9.23;;;1.30;89.20;;;;;;5061667;28;20041;-66
2021/01/15 08:24:47;;;;;;;18.50;10.00;;;1.30;89.20;;;;;;5065574;28;20052;-65
2021/01/15 08:27:17;;;;;;;17.97;9.90;;;1.30;89.20;;;;;;5058505;28;20033;-65
2021/01/15 08:29:44;;;;;;;19.60;10.23;;;1.30;89.20;;;;;;5057456;28;20036;-65
2021/01/15 08:32:11;;;;;;;22.57;11.10;;;1.30;89.20;;;;;;5063241;28;20043;-64
2021/01/15 08:34:38;;;;;;;20.40;10.83;;;1.40;89.10;;;;;;5061731;28;20037;-64
2021/01/15 08:37:12;;;;;;;18.83;9.93;;;1.40;89.30;;;;;;5059545;28;20147;-64
2021/01/15 08:39:54;;;;;;;18.23;9.67;;;1.40;89.30;;;;;;5060326;28;20133;-65
2021/01/15 08:42:20;;;;;;;20.00;10.17;;;1.40;89.00;;;;;;5061404;28;20124;-65
2021/01/15 08:44:48;;;;;;;19.77;10.37;;;1.40;89.10;;;;;;5027412;28;20064;-65
2021/01/15 08:47:17;;;;;;;18.77;10.37;;;1.40;89.10;;;;;;5061645;28;20044;-76
2021/01/15 08:49:57;;;;;;;19.90;10.50;;;1.40;89.10;;;;;;5064549;28;20053;-77
2021/01/15 08:52:25;;;;;;;18.77;9.90;;;1.40;89.10;;;;;;5066828;28;20543;-73
2021/01/15 08:54:52;;;;;;;20.60;10.73;;;1.40;89.10;;;;;;5071015;28;20259;-76
2021/01/15 08:57:20;;;;;;;18.50;10.30;;;1.40;89.00;;;;;;5071053;28;20412;-75
2021/01/15 08:59:46;;;;;;;19.60;10.13;;;1.40;88.90;;;;;;5069398;28;20124;-76
2021/01/15 09:02:15;;;;;;;20.20;10.97;;;1.40;88.90;;;;;;5070273;28;20498;-75
2021/01/15 09:04:44;;;;;;;18.17;9.77;;;1.40;88.80;;;;;;5071078;28;20039;-76
2021/01/15 09:07:11;;;;;;;18.93;10.00;;;1.40;88.80;;;;;;5071462;28;20036;-77
2021/01/15 09:09:39;;;;;;;20.07;10.27;;;1.40;88.60;;;;;;5071167;28;20040;-77
2021/01/15 09:12:07;;;;;;;18.20;9.20;;;1.40;88.60;;;;;;5053110;28;20090;-76
2021/01/15 09:14:36;;;;;;;18.90;10.27;;;1.40;88.60;;;;;;5070390;28;20032;-76
2021/01/15 09:17:08;;;;;;;19.97;10.47;;;1.40;88.60;;;;;;5068939;28;20064;-77
2021/01/15 09:19:36;;;;;;;19.57;9.90;;;1.30;88.60;;;;;;5070048;28;20035;-77
2021/01/15 09:22:07;;;;;;;19.40;10.70;;;1.40;88.60;;;;;;5070581;28;20051;-76
2021/01/15 09:24:34;;;;;;;19.57;9.97;;;1.40;88.70;;;;;;5071260;28;20029;-77
2021/01/15 09:27:07;;;;;;;18.83;8.77;;;1.40;88.60;;;;;;5067500;28;20492;-76
2021/01/15 09:29:40;;;;;;;19.20;10.00;;;1.40;88.40;;;;;;5069908;28;20033;-77
2021/01/15 09:32:06;;;;;;;20.00;10.13;;;1.40;88.40;;;;;;5069940;28;20033;-75
2021/01/15 09:34:32;;;;;;;17.70;9.73;;;1.40;88.50;;;;;;5052236;28;20052;-77
2021/01/15 09:36:59;;;;;;;19.30;9.73;;;1.40;88.40;;;;;;5070357;28;20535;-77
2021/01/15 09:39:26;;;;;;;17.10;9.53;;;1.40;88.50;;;;;;5069547;28;20032;-76
2021/01/15 09:41:55;;;;;;;20.53;9.57;;;1.40;88.50;;;;;;5070087;28;20053;-77
2021/01/15 09:44:22;;;;;;;19.07;10.10;;;1.40;88.50;;;;;;5070064;28;20040;-77
2021/01/15 09:46:54;;;;;;;18.43;10.00;;;1.40;88.50;;;;;;5070288;28;20561;-75
2021/01/15 09:49:20;;;;;;;17.97;9.60;;;1.50;88.50;;;;;;5052680;28;20496;-77
2021/01/15 09:51:49;;;;;;;18.13;9.77;;;1.50;88.50;;;;;;5070075;28;20049;-76
2021/01/15 09:54:16;;;;;;;18.77;9.10;;;1.50;88.30;;;;;;5068975;28;20044;-76
2021/01/15 09:56:42;;;;;;;17.20;9.20;;;1.60;88.40;;;;;;5069924;28;20513;-76
2021/01/15 09:59:11;;;;;;;18.77;9.83;;;1.50;88.30;;;;;;5069967;28;20162;-74
2021/01/15 10:01:37;;;;;;;17.80;9.73;;;1.60;88.20;;;;;;5065963;28;20166;-75
2021/01/15 10:04:04;;;;;;;17.90;9.57;;;1.60;88.10;;;;;;5067194;28;20048;-77
2021/01/15 10:06:32;;;;;;;17.20;9.33;;;1.60;88.00;;;;;;5068882;28;20033;-75
2021/01/15 10:08:59;;;;;;;17.83;9.60;;;1.60;88.00;;;;;;5068781;28;20064;-77
2021/01/15 10:11:26;;;;;;;18.97;9.70;;;1.60;88.00;;;;;;5072883;28;20055;-77
2021/01/15 10:14:02;;;;;;;18.03;9.10;;;1.60;87.80;;;;;;5072269;28;20515;-77
2021/01/15 10:16:28;;;;;;;15.97;8.63;;;1.60;87.70;;;;;;5072808;28;20083;-76
2021/01/15 10:18:55;;;;;;;16.97;9.10;;;1.60;87.60;;;;;;5073556;28;20050;-77
2021/01/15 10:21:28;;;;;;;17.13;8.60;;;1.60;87.60;;;;;;5055488;28;20047;-77
2021/01/15 10:23:56;;;;;;;16.57;8.93;;;1.60;87.20;;;;;;5072032;28;20037;-76
2021/01/15 10:26:23;;;;;;;16.37;8.40;;;1.50;87.50;;;;;;5072636;28;20032;-76
2021/01/15 10:28:57;;;;;;;16.97;8.63;;;1.50;87.50;;;;;;5073637;28;20048;-77
2021/01/15 10:31:32;;;;;;;19.40;9.43;;;1.60;87.60;;;;;;5071429;28;20646;-76
2021/01/15 10:34:00;;;;;;;16.03;8.40;;;1.60;87.50;;;;;;5073374;28;20412;-77
2021/01/15 10:36:26;;;;;;;16.80;9.03;;;1.60;87.10;;;;;;5073035;28;20454;-77
2021/01/15 10:38:53;;;;;;;16.53;8.60;;;1.60;87.20;;;;;;5073435;28;20060;-76
2021/01/15 10:41:34;;;;;;;16.17;8.23;;;1.60;87.00;;;;;;5070866;28;20048;-76
2021/01/15 10:44:05;;;;;;;16.60;8.25;;;1.60;87.10;;;;;;5071712;28;20090;-76
2021/01/15 10:46:36;;;;;;;15.97;8.20;;;1.60;87.10;;;;;;5071280;28;20060;-76
2021/01/15 10:49:07;;;;;;;16.10;8.63;;;1.60;86.90;;;;;;5073181;28;20037;-76
2021/01/15 10:51:33;;;;;;;;;;;1.50;86.60;;;;;;5072555;28;20576;-77
2021/01/15 10:54:00;;;;;;;14.57;7.20;;;1.50;86.70;;;;;;5073244;28;20054;-77
2021/01/15 10:56:37;;;;;;;17.47;8.50;;;1.50;86.90;;;;;;5072358;28;20090;-77
2021/01/15 10:59:04;;;;;;;14.23;7.97;;;1.60;87.10;;;;;;5072383;28;20033;-77
2021/01/15 11:01:40;;;;;;;15.53;7.80;;;1.60;86.90;;;;;;5073134;28;20039;-75
2021/01/15 11:04:07;;;;;;;16.50;8.30;;;1.60;86.90;;;;;;5073373;28;20036;-76
2021/01/15 11:06:35;;;;;;;16.63;8.77;;;1.60;86.80;;;;;;5072553;28;20558;-77
2021/01/15 11:09:01;;;;;;;15.77;9.00;;;1.60;86.70;;;;;;5073490;28;20103;-75
2021/01/15 11:11:27;;;;;;;15.73;8.57;;;1.60;86.80;;;;;;5073020;28;20040;-77
2021/01/15 11:13:54;;;;;;;19.43;10.50;;;1.70;86.80;;;;;;5073615;28;20044;-75
2021/01/15 11:16:20;;;;;;;17.23;8.97;;;1.70;86.60;;;;;;5071545;28;20520;-77
2021/01/15 11:18:46;;;;;;;15.00;8.17;;;1.70;86.60;;;;;;5073601;28;20040;-77
2021/01/15 11:21:12;;;;;;;14.40;7.40;;;1.80;86.50;;;;;;5069863;28;20414;-77
2021/01/15 11:23:38;;;;;;;15.20;7.57;;;1.80;86.20;;;;;;5072674;28;20041;-77
2021/01/15 11:26:05;;;;;;;15.83;7.67;;;1.80;86.20;;;;;;5071305;28;20454;-77
2021/01/15 11:28:31;;;;;;;14.73;7.47;;;1.80;86.10;;;;;;5053669;28;20447;-77
2021/01/15 11:30:57;;;;;;;13.43;7.40;;;1.80;86.20;;;;;;5071837;28;20037;-77
2021/01/15 11:33:23;;;;;;;14.90;7.60;;;1.80;86.10;;;;;;5072342;28;20051;-77
2021/01/15 11:35:49;;;;;;;14.67;7.07;;;1.80;86.10;;;;;;5071354;28;20040;-77
2021/01/15 11:38:15;;;;;;;14.57;6.77;;;1.80;85.80;;;;;;5072728;28;20040;-77
2021/01/15 11:40:41;;;;;;;15.03;7.50;;;1.80;85.80;;;;;;5070035;28;20066;-76
2021/01/15 11:43:07;;;;;;;12.93;6.50;;;1.80;85.80;;;;;;5072652;28;20032;-77
2021/01/15 11:45:32;;;;;;;12.93;6.80;;;1.80;85.70;;;;;;5070777;28;20396;-75
2021/01/15 11:47:58;;;;;;;13.90;7.17;;;1.80;85.30;;;;;;5072364;28;20036;-76
2021/01/15 11:50:25;;;;;;;12.93;6.67;;;1.80;85.40;;;;;;5070028;28;20036;-77
2021/01/15 11:52:57;;;;;;;13.10;7.00;;;1.80;85.50;;;;;;5071820;28;20515;-75
2021/01/15 11:55:23;;;;;;;15.43;6.83;;;1.80;85.40;;;;;;5072355;28;20048;-75
2021/01/15 11:57:53;;;;;;;13.47;6.97;;;1.80;85.20;;;;;;5070467;28;20029;-76
2021/01/15 12:00:21;;;;;;;12.13;6.25;;;1.70;85.40;;;;;;5070244;28;20033;-77
2021/01/15 12:02:50;;;;;;;12.57;6.70;;;1.80;85.50;;;;;;5070540;28;20123;-71
2021/01/15 12:05:16;;;;;;;13.93;6.77;;;1.80;85.40;;;;;;5072079;28;20043;-77
2021/01/15 12:07:41;;;;;;;11.87;6.37;;;1.80;85.30;;;;;;5071904;28;20033;-75
2021/01/15 12:10:08;;;;;;;12.90;6.10;;;1.90;85.20;;;;;;5069387;28;20032;-75
2021/01/15 12:12:38;;;;;;;14.03;6.37;;;1.90;85.10;;;;;;5071849;28;20040;-77
2021/01/15 12:15:06;;;;;;;12.37;6.47;;;1.90;84.90;;;;;;5071335;28;20041;-78
2021/01/15 12:17:32;;;;;;;11.87;6.17;;;1.90;84.80;;;;;;5072511;28;20294;-77
2021/01/15 12:19:58;;;;;;;12.07;6.57;;;1.90;84.70;;;;;;5070021;28;20451;-73
2021/01/15 12:22:24;;;;;;;12.20;6.27;;;1.90;84.60;;;;;;5072255;28;20045;-77
2021/01/15 12:24:50;;;;;;;14.57;6.73;;;1.90;84.60;;;;;;5072408;28;20404;-77
2021/01/15 12:27:16;;;;;;;11.60;6.17;;;1.80;84.50;;;;;;5069957;28;20036;-76
2021/01/15 12:29:42;;;;;;;15.00;6.80;;;1.80;84.50;;;;;;5070932;28;20032;-76
2021/01/15 12:32:07;;;;;;;14.07;6.60;;;1.80;84.40;;;;;;5071499;28;20115;-77
2021/01/15 12:34:33;;;;;;;13.63;6.07;;;1.80;84.20;;;;;;5070842;28;20451;-76
2021/01/15 12:37:00;;;;;;;14.63;6.70;;;1.80;84.10;;;;;;5070086;28;20048;-76
2021/01/15 12:39:26;;;;;;;12.17;5.80;;;1.70;84.00;;;;;;5070384;28;20417;-77
2021/01/15 12:41:52;;;;;;;12.23;5.83;;;1.60;83.90;;;;;;5062083;28;20048;-76
2021/01/15 12:44:18;;;;;;;12.03;6.00;;;1.60;83.70;;;;;;5049870;28;20087;-76
2021/01/15 12:46:44;;;;;;;11.93;5.80;;;1.60;83.70;;;;;;5049511;28;20084;-77
2021/01/15 12:49:09;;;;;;;11.33;5.77;;;1.60;83.80;;;;;;5050067;28;20044;-76
2021/01/15 12:51:35;;;;;;;11.77;5.80;;;1.50;83.70;;;;;;5049861;28;20094;-76
2021/01/15 12:54:01;;;;;;;10.07;5.20;;;1.50;83.90;;;;;;5049874;28;20408;-76
2021/01/15 12:56:34;;;;;;;12.00;5.50;;;1.50;83.90;;;;;;5033556;28;20037;-76
2021/01/15 12:59:00;;;;;;;11.17;5.50;;;1.50;84.00;;;;;;5051382;28;20457;-76